Portada
METAR-TAF:

METAR-TAF

Aeropuertos :

Aeropuerto Internacional de Heraclión Nikos Kazantzakis

Heraklion, Grecia

latitud: 35-20N, longitud: 025-11E, altitud: 37 m

Observación

El informe se hizo hace 24 minutos, a las 00:20 UTC
Viento 14 kt del norte-noroeste
Temperatura 14°C
Humedad 63%
Presión 1024 hPa
Visibilidad 10 km o más
Escasas nubes a una altura de 1800 ft
Cielo nuboso a una altura de 3000 ft

METAR: LGIR 060020Z 33014KT 9999 FEW018 BKN030 14/07 Q1024 NOSIG

Hora: 02:44 (00:44 UTC)

Pronóstico

El informe se hizo hace 1 hora y 44 minutos, a las 23:00 UTC
Pronóstico válido del 06 a las 00 UTC al 06 a las 24 UTC
Viento 12 kt del norte-noroeste
Visibilidad 10 km o más
Escasas nubes a una altura de 1800 ft
Cielo nuboso a una altura de 3000 ft

TAF: LGIR 052300Z 0600/0624 34012KT 9999 FEW018 BKN030

Observaciones y pronósticos meteorológicos de más de 4000 aeropuertos (mensajes METAR y TAF).

Los puntos amarillos y rojos representan las estaciones disponibles.

Ponga el ratón en el punto deseado para ver el nombre de la estación.

Haga clic para ver las observaciones y los pronósticos meteorológicos.

Para cambiar el mapa : haga clic en los botones verdes con una cruz de color negro para hacer un zoom, en el botón verde con un guión para alejar o en las flechas verdes para mapas adyacentes.


METAR-TAF: